sensor_id;sensor_type;location;lat;lon;timestamp;P1;durP1;ratioP1;P2;durP2;ratioP2
40252;SDS011;25972;51.854;4.534;2023-12-29T00:01:08;16.95;;;15.35;;
40252;SDS011;25972;51.854;4.534;2023-12-29T00:03:35;17.10;;;15.70;;
40252;SDS011;25972;51.854;4.534;2023-12-29T00:06:01;16.52;;;15.40;;
40252;SDS011;25972;51.854;4.534;2023-12-29T00:08:28;16.70;;;15.40;;
40252;SDS011;25972;51.854;4.534;2023-12-29T00:10:54;17.27;;;15.88;;
40252;SDS011;25972;51.854;4.534;2023-12-29T00:13:20;23.23;;;15.93;;
40252;SDS011;25972;51.854;4.534;2023-12-29T00:15:51;18.60;;;16.02;;
40252;SDS011;25972;51.854;4.534;2023-12-29T00:18:17;18.42;;;16.52;;
40252;SDS011;25972;51.854;4.534;2023-12-29T00:20:45;17.60;;;16.13;;
40252;SDS011;25972;51.854;4.534;2023-12-29T00:23:11;17.83;;;16.10;;
40252;SDS011;25972;51.854;4.534;2023-12-29T00:25:37;17.33;;;15.80;;
40252;SDS011;25972;51.854;4.534;2023-12-29T00:28:03;17.70;;;15.75;;
40252;SDS011;25972;51.854;4.534;2023-12-29T00:30:30;18.85;;;16.33;;
40252;SDS011;25972;51.854;4.534;2023-12-29T00:32:55;20.27;;;15.98;;
40252;SDS011;25972;51.854;4.534;2023-12-29T00:35:21;16.88;;;15.57;;
40252;SDS011;25972;51.854;4.534;2023-12-29T00:37:49;16.30;;;15.20;;
40252;SDS011;25972;51.854;4.534;2023-12-29T00:40:17;17.45;;;16.02;;
40252;SDS011;25972;51.854;4.534;2023-12-29T00:42:43;18.60;;;15.82;;
40252;SDS011;25972;51.854;4.534;2023-12-29T00:45:10;16.75;;;15.52;;
40252;SDS011;25972;51.854;4.534;2023-12-29T00:47:36;18.63;;;15.20;;
40252;SDS011;25972;51.854;4.534;2023-12-29T00:50:03;16.52;;;15.02;;
40252;SDS011;25972;51.854;4.534;2023-12-29T00:52:29;17.60;;;15.82;;
40252;SDS011;25972;51.854;4.534;2023-12-29T00:54:57;16.67;;;15.38;;
40252;SDS011;25972;51.854;4.534;2023-12-29T00:57:23;17.40;;;15.75;;
40252;SDS011;25972;51.854;4.534;2023-12-29T00:59:49;17.00;;;15.35;;
40252;SDS011;25972;51.854;4.534;2023-12-29T01:02:15;16.20;;;14.88;;
40252;SDS011;25972;51.854;4.534;2023-12-29T01:04:41;20.83;;;15.60;;
40252;SDS011;25972;51.854;4.534;2023-12-29T01:07:07;17.17;;;15.82;;
40252;SDS011;25972;51.854;4.534;2023-12-29T01:09:36;17.55;;;15.82;;
40252;SDS011;25972;51.854;4.534;2023-12-29T01:12:05;17.65;;;15.90;;
40252;SDS011;25972;51.854;4.534;2023-12-29T01:14:31;17.88;;;16.27;;
40252;SDS011;25972;51.854;4.534;2023-12-29T01:16:58;16.90;;;15.50;;
40252;SDS011;25972;51.854;4.534;2023-12-29T01:19:24;17.05;;;15.57;;
40252;SDS011;25972;51.854;4.534;2023-12-29T01:21:50;17.67;;;16.00;;
40252;SDS011;25972;51.854;4.534;2023-12-29T01:24:16;20.02;;;15.95;;
40252;SDS011;25972;51.854;4.534;2023-12-29T01:26:43;16.33;;;15.15;;
40252;SDS011;25972;51.854;4.534;2023-12-29T01:29:10;16.38;;;15.07;;
40252;SDS011;25972;51.854;4.534;2023-12-29T01:31:36;16.30;;;15.20;;
40252;SDS011;25972;51.854;4.534;2023-12-29T01:34:02;17.30;;;15.80;;
40252;SDS011;25972;51.854;4.534;2023-12-29T01:36:28;16.33;;;14.82;;
40252;SDS011;25972;51.854;4.534;2023-12-29T01:38:54;17.38;;;15.57;;
40252;SDS011;25972;51.854;4.534;2023-12-29T01:41:22;16.52;;;15.13;;
40252;SDS011;25972;51.854;4.534;2023-12-29T01:46:48;16.60;;;15.05;;
40252;SDS011;25972;51.854;4.534;2023-12-29T01:49:16;15.70;;;14.45;;
40252;SDS011;25972;51.854;4.534;2023-12-29T01:51:43;17.10;;;14.43;;
40252;SDS011;25972;51.854;4.534;2023-12-29T01:54:10;20.63;;;14.32;;
40252;SDS011;25972;51.854;4.534;2023-12-29T01:56:37;14.40;;;13.32;;
40252;SDS011;25972;51.854;4.534;2023-12-29T01:59:03;16.33;;;13.98;;
40252;SDS011;25972;51.854;4.534;2023-12-29T02:01:30;14.15;;;12.85;;
40252;SDS011;25972;51.854;4.534;2023-12-29T02:03:58;15.00;;;13.60;;
40252;SDS011;25972;51.854;4.534;2023-12-29T02:06:24;14.40;;;12.55;;
40252;SDS011;25972;51.854;4.534;2023-12-29T02:08:51;13.63;;;12.52;;
40252;SDS011;25972;51.854;4.534;2023-12-29T02:11:17;14.45;;;12.48;;
40252;SDS011;25972;51.854;4.534;2023-12-29T02:13:43;12.70;;;11.80;;
40252;SDS011;25972;51.854;4.534;2023-12-29T02:16:12;16.20;;;13.95;;
40252;SDS011;25972;51.854;4.534;2023-12-29T02:18:44;13.85;;;12.75;;
40252;SDS011;25972;51.854;4.534;2023-12-29T02:21:14;18.50;;;13.57;;
40252;SDS011;25972;51.854;4.534;2023-12-29T02:23:39;14.35;;;12.90;;
40252;SDS011;25972;51.854;4.534;2023-12-29T02:26:10;15.20;;;13.65;;
40252;SDS011;25972;51.854;4.534;2023-12-29T02:28:39;14.00;;;12.70;;
40252;SDS011;25972;51.854;4.534;2023-12-29T02:31:14;14.75;;;13.10;;
40252;SDS011;25972;51.854;4.534;2023-12-29T02:33:44;16.67;;;13.40;;
40252;SDS011;25972;51.854;4.534;2023-12-29T02:36:12;14.23;;;13.00;;
40252;SDS011;25972;51.854;4.534;2023-12-29T02:38:39;13.95;;;12.88;;
40252;SDS011;25972;51.854;4.534;2023-12-29T02:41:05;14.25;;;12.93;;
40252;SDS011;25972;51.854;4.534;2023-12-29T02:43:32;18.20;;;13.00;;
40252;SDS011;25972;51.854;4.534;2023-12-29T02:45:59;15.18;;;13.80;;
40252;SDS011;25972;51.854;4.534;2023-12-29T02:48:25;13.77;;;12.35;;
40252;SDS011;25972;51.854;4.534;2023-12-29T02:50:51;14.10;;;11.90;;
40252;SDS011;25972;51.854;4.534;2023-12-29T02:53:17;13.75;;;12.45;;
40252;SDS011;25972;51.854;4.534;2023-12-29T02:55:43;13.70;;;12.50;;
40252;SDS011;25972;51.854;4.534;2023-12-29T02:58:09;14.52;;;13.07;;
40252;SDS011;25972;51.854;4.534;2023-12-29T03:00:36;14.10;;;12.80;;
40252;SDS011;25972;51.854;4.534;2023-12-29T03:03:02;14.43;;;12.70;;
40252;SDS011;25972;51.854;4.534;2023-12-29T03:05:29;13.70;;;12.55;;
40252;SDS011;25972;51.854;4.534;2023-12-29T03:07:56;15.40;;;12.35;;
40252;SDS011;25972;51.854;4.534;2023-12-29T03:10:23;14.68;;;13.18;;
40252;SDS011;25972;51.854;4.534;2023-12-29T03:12:49;14.95;;;13.55;;
40252;SDS011;25972;51.854;4.534;2023-12-29T03:15:15;13.55;;;12.57;;
40252;SDS011;25972;51.854;4.534;2023-12-29T03:17:42;14.07;;;12.75;;
40252;SDS011;25972;51.854;4.534;2023-12-29T03:20:09;15.40;;;13.20;;
40252;SDS011;25972;51.854;4.534;2023-12-29T03:22:35;13.60;;;12.32;;
40252;SDS011;25972;51.854;4.534;2023-12-29T03:25:01;14.27;;;13.00;;
40252;SDS011;25972;51.854;4.534;2023-12-29T03:27:27;14.40;;;13.07;;
40252;SDS011;25972;51.854;4.534;2023-12-29T03:29:54;13.88;;;12.77;;
40252;SDS011;25972;51.854;4.534;2023-12-29T03:32:20;14.40;;;12.90;;
40252;SDS011;25972;51.854;4.534;2023-12-29T03:34:47;14.05;;;12.80;;
40252;SDS011;25972;51.854;4.534;2023-12-29T03:37:14;13.60;;;12.60;;
40252;SDS011;25972;51.854;4.534;2023-12-29T03:39:40;17.23;;;13.80;;
40252;SDS011;25972;51.854;4.534;2023-12-29T03:42:06;15.02;;;13.77;;
40252;SDS011;25972;51.854;4.534;2023-12-29T03:44:32;14.90;;;13.68;;
40252;SDS011;25972;51.854;4.534;2023-12-29T03:46:58;14.30;;;13.13;;
40252;SDS011;25972;51.854;4.534;2023-12-29T03:49:24;14.80;;;13.32;;
40252;SDS011;25972;51.854;4.534;2023-12-29T03:51:52;24.27;;;13.98;;
40252;SDS011;25972;51.854;4.534;2023-12-29T03:54:18;14.80;;;13.35;;
40252;SDS011;25972;51.854;4.534;2023-12-29T03:56:46;15.85;;;13.75;;
40252;SDS011;25972;51.854;4.534;2023-12-29T03:59:15;21.05;;;14.18;;
40252;SDS011;25972;51.854;4.534;2023-12-29T04:01:41;13.93;;;12.93;;
40252;SDS011;25972;51.854;4.534;2023-12-29T04:04:06;15.10;;;13.82;;
40252;SDS011;25972;51.854;4.534;2023-12-29T04:06:33;17.55;;;13.45;;
40252;SDS011;25972;51.854;4.534;2023-12-29T04:09:01;20.45;;;14.15;;
40252;SDS011;25972;51.854;4.534;2023-12-29T04:11:27;20.88;;;13.52;;
40252;SDS011;25972;51.854;4.534;2023-12-29T04:13:54;14.48;;;13.10;;
40252;SDS011;25972;51.854;4.534;2023-12-29T04:16:21;13.65;;;12.70;;
40252;SDS011;25972;51.854;4.534;2023-12-29T04:18:47;19.42;;;13.60;;
40252;SDS011;25972;51.854;4.534;2023-12-29T04:21:14;16.20;;;13.40;;
40252;SDS011;25972;51.854;4.534;2023-12-29T04:23:40;18.33;;;14.55;;
40252;SDS011;25972;51.854;4.534;2023-12-29T04:26:10;14.45;;;13.45;;
40252;SDS011;25972;51.854;4.534;2023-12-29T04:28:36;15.40;;;14.00;;
40252;SDS011;25972;51.854;4.534;2023-12-29T04:31:02;20.92;;;14.32;;
40252;SDS011;25972;51.854;4.534;2023-12-29T04:33:29;17.30;;;13.60;;
40252;SDS011;25972;51.854;4.534;2023-12-29T04:35:55;14.63;;;13.50;;
40252;SDS011;25972;51.854;4.534;2023-12-29T04:38:21;16.75;;;14.68;;
40252;SDS011;25972;51.854;4.534;2023-12-29T04:40:47;19.20;;;14.15;;
40252;SDS011;25972;51.854;4.534;2023-12-29T04:43:14;15.57;;;14.13;;
40252;SDS011;25972;51.854;4.534;2023-12-29T04:45:40;16.30;;;14.50;;
40252;SDS011;25972;51.854;4.534;2023-12-29T04:48:06;16.23;;;14.60;;
40252;SDS011;25972;51.854;4.534;2023-12-29T04:50:32;14.70;;;13.27;;
40252;SDS011;25972;51.854;4.534;2023-12-29T04:52:58;15.70;;;14.38;;
40252;SDS011;25972;51.854;4.534;2023-12-29T04:55:24;16.23;;;14.20;;
40252;SDS011;25972;51.854;4.534;2023-12-29T04:57:51;15.48;;;14.02;;
40252;SDS011;25972;51.854;4.534;2023-12-29T05:00:18;14.73;;;13.73;;
40252;SDS011;25972;51.854;4.534;2023-12-29T05:02:44;16.00;;;14.40;;
40252;SDS011;25972;51.854;4.534;2023-12-29T05:05:10;14.23;;;13.10;;
40252;SDS011;25972;51.854;4.534;2023-12-29T05:07:36;18.73;;;14.05;;
40252;SDS011;25972;51.854;4.534;2023-12-29T05:10:03;14.88;;;13.73;;
40252;SDS011;25972;51.854;4.534;2023-12-29T05:12:29;17.00;;;15.30;;
40252;SDS011;25972;51.854;4.534;2023-12-29T05:14:55;15.27;;;13.65;;
40252;SDS011;25972;51.854;4.534;2023-12-29T05:17:22;21.60;;;14.27;;
40252;SDS011;25972;51.854;4.534;2023-12-29T05:19:48;16.48;;;15.07;;
40252;SDS011;25972;51.854;4.534;2023-12-29T05:22:15;15.75;;;14.45;;
40252;SDS011;25972;51.854;4.534;2023-12-29T05:24:43;15.63;;;14.02;;
40252;SDS011;25972;51.854;4.534;2023-12-29T05:27:10;18.05;;;14.73;;
40252;SDS011;25972;51.854;4.534;2023-12-29T05:29:36;18.15;;;15.90;;
40252;SDS011;25972;51.854;4.534;2023-12-29T05:32:03;16.33;;;13.85;;
40252;SDS011;25972;51.854;4.534;2023-12-29T05:34:31;16.83;;;13.80;;
40252;SDS011;25972;51.854;4.534;2023-12-29T05:36:57;15.20;;;13.85;;
40252;SDS011;25972;51.854;4.534;2023-12-29T05:39:23;19.15;;;14.40;;
40252;SDS011;25972;51.854;4.534;2023-12-29T05:41:49;19.15;;;14.50;;
40252;SDS011;25972;51.854;4.534;2023-12-29T05:44:15;18.92;;;14.40;;
40252;SDS011;25972;51.854;4.534;2023-12-29T05:46:45;15.18;;;13.68;;
40252;SDS011;25972;51.854;4.534;2023-12-29T05:49:12;16.27;;;13.75;;
40252;SDS011;25972;51.854;4.534;2023-12-29T05:51:39;16.17;;;14.32;;
40252;SDS011;25972;51.854;4.534;2023-12-29T05:54:05;15.95;;;13.63;;
40252;SDS011;25972;51.854;4.534;2023-12-29T05:56:31;18.63;;;14.65;;
40252;SDS011;25972;51.854;4.534;2023-12-29T05:58:57;15.40;;;13.88;;
40252;SDS011;25972;51.854;4.534;2023-12-29T06:01:23;14.77;;;13.45;;
40252;SDS011;25972;51.854;4.534;2023-12-29T06:03:49;14.43;;;13.23;;
40252;SDS011;25972;51.854;4.534;2023-12-29T06:06:16;15.60;;;14.10;;
40252;SDS011;25972;51.854;4.534;2023-12-29T06:08:44;16.58;;;14.73;;
40252;SDS011;25972;51.854;4.534;2023-12-29T06:11:14;17.88;;;14.32;;
40252;SDS011;25972;51.854;4.534;2023-12-29T06:13:40;14.70;;;13.18;;
40252;SDS011;25972;51.854;4.534;2023-12-29T06:16:07;15.80;;;14.35;;
40252;SDS011;25972;51.854;4.534;2023-12-29T06:18:33;15.20;;;13.77;;
40252;SDS011;25972;51.854;4.534;2023-12-29T06:21:01;15.15;;;13.75;;
40252;SDS011;25972;51.854;4.534;2023-12-29T06:23:27;18.73;;;13.40;;
40252;SDS011;25972;51.854;4.534;2023-12-29T06:25:55;14.70;;;13.50;;
40252;SDS011;25972;51.854;4.534;2023-12-29T06:28:21;19.33;;;14.45;;
40252;SDS011;25972;51.854;4.534;2023-12-29T06:30:47;16.13;;;13.30;;
40252;SDS011;25972;51.854;4.534;2023-12-29T06:33:13;12.65;;;11.82;;
40252;SDS011;25972;51.854;4.534;2023-12-29T06:35:39;13.27;;;12.30;;
40252;SDS011;25972;51.854;4.534;2023-12-29T06:38:05;13.65;;;12.57;;
40252;SDS011;25972;51.854;4.534;2023-12-29T06:40:31;13.02;;;11.65;;
40252;SDS011;25972;51.854;4.534;2023-12-29T06:42:59;12.45;;;11.52;;
40252;SDS011;25972;51.854;4.534;2023-12-29T06:45:25;12.70;;;11.52;;
40252;SDS011;25972;51.854;4.534;2023-12-29T06:47:51;12.68;;;11.45;;
40252;SDS011;25972;51.854;4.534;2023-12-29T06:50:17;15.93;;;11.18;;
40252;SDS011;25972;51.854;4.534;2023-12-29T06:52:43;12.07;;;10.93;;
40252;SDS011;25972;51.854;4.534;2023-12-29T06:55:09;12.10;;;11.10;;
40252;SDS011;25972;51.854;4.534;2023-12-29T06:57:35;11.73;;;10.93;;
40252;SDS011;25972;51.854;4.534;2023-12-29T07:00:04;13.00;;;11.40;;
40252;SDS011;25972;51.854;4.534;2023-12-29T07:02:31;12.00;;;11.20;;
40252;SDS011;25972;51.854;4.534;2023-12-29T07:04:57;12.90;;;11.43;;
40252;SDS011;25972;51.854;4.534;2023-12-29T07:07:23;12.93;;;11.82;;
40252;SDS011;25972;51.854;4.534;2023-12-29T07:09:50;13.18;;;11.85;;
40252;SDS011;25972;51.854;4.534;2023-12-29T07:12:16;13.02;;;11.68;;
40252;SDS011;25972;51.854;4.534;2023-12-29T07:14:42;12.52;;;11.32;;
40252;SDS011;25972;51.854;4.534;2023-12-29T07:17:10;16.77;;;12.32;;
40252;SDS011;25972;51.854;4.534;2023-12-29T07:19:36;11.15;;;10.35;;
40252;SDS011;25972;51.854;4.534;2023-12-29T07:22:02;12.50;;;11.25;;
40252;SDS011;25972;51.854;4.534;2023-12-29T07:24:30;12.30;;;11.20;;
40252;SDS011;25972;51.854;4.534;2023-12-29T07:26:56;11.55;;;10.57;;
40252;SDS011;25972;51.854;4.534;2023-12-29T07:29:22;11.15;;;10.32;;
40252;SDS011;25972;51.854;4.534;2023-12-29T07:31:49;11.07;;;10.05;;
40252;SDS011;25972;51.854;4.534;2023-12-29T07:34:16;10.68;;;9.70;;
40252;SDS011;25972;51.854;4.534;2023-12-29T07:36:42;10.98;;;9.90;;
40252;SDS011;25972;51.854;4.534;2023-12-29T07:39:08;11.25;;;10.32;;
40252;SDS011;25972;51.854;4.534;2023-12-29T07:41:38;11.30;;;10.50;;
40252;SDS011;25972;51.854;4.534;2023-12-29T07:44:06;11.00;;;10.10;;
40252;SDS011;25972;51.854;4.534;2023-12-29T07:46:32;11.35;;;10.35;;
40252;SDS011;25972;51.854;4.534;2023-12-29T07:48:58;10.60;;;9.90;;
40252;SDS011;25972;51.854;4.534;2023-12-29T07:51:26;12.38;;;11.32;;
40252;SDS011;25972;51.854;4.534;2023-12-29T07:53:52;11.77;;;10.57;;
40252;SDS011;25972;51.854;4.534;2023-12-29T07:56:18;11.20;;;9.98;;
40252;SDS011;25972;51.854;4.534;2023-12-29T07:58:45;10.82;;;9.93;;
40252;SDS011;25972;51.854;4.534;2023-12-29T08:01:11;11.65;;;10.65;;
40252;SDS011;25972;51.854;4.534;2023-12-29T08:03:37;12.43;;;10.90;;
40252;SDS011;25972;51.854;4.534;2023-12-29T08:06:03;15.90;;;10.90;;
40252;SDS011;25972;51.854;4.534;2023-12-29T08:08:31;11.35;;;10.52;;
40252;SDS011;25972;51.854;4.534;2023-12-29T08:10:57;12.00;;;11.15;;
40252;SDS011;25972;51.854;4.534;2023-12-29T08:13:23;12.65;;;11.40;;
40252;SDS011;25972;51.854;4.534;2023-12-29T08:15:49;11.75;;;10.65;;
40252;SDS011;25972;51.854;4.534;2023-12-29T08:18:15;12.23;;;11.25;;
40252;SDS011;25972;51.854;4.534;2023-12-29T08:20:41;12.55;;;11.40;;
40252;SDS011;25972;51.854;4.534;2023-12-29T08:23:08;12.57;;;11.52;;
40252;SDS011;25972;51.854;4.534;2023-12-29T08:25:36;12.70;;;11.80;;
40252;SDS011;25972;51.854;4.534;2023-12-29T08:28:03;12.20;;;11.40;;
40252;SDS011;25972;51.854;4.534;2023-12-29T08:30:30;11.88;;;11.00;;
40252;SDS011;25972;51.854;4.534;2023-12-29T08:32:59;12.15;;;11.35;;
40252;SDS011;25972;51.854;4.534;2023-12-29T08:35:25;13.00;;;11.90;;
40252;SDS011;25972;51.854;4.534;2023-12-29T08:37:51;11.38;;;10.57;;
40252;SDS011;25972;51.854;4.534;2023-12-29T08:40:17;11.80;;;10.82;;
40252;SDS011;25972;51.854;4.534;2023-12-29T08:42:44;12.70;;;11.48;;
40252;SDS011;25972;51.854;4.534;2023-12-29T08:45:10;11.95;;;10.77;;
40252;SDS011;25972;51.854;4.534;2023-12-29T08:47:36;12.80;;;10.77;;
40252;SDS011;25972;51.854;4.534;2023-12-29T08:50:03;13.15;;;11.55;;
40252;SDS011;25972;51.854;4.534;2023-12-29T08:52:29;11.90;;;11.10;;
40252;SDS011;25972;51.854;4.534;2023-12-29T08:54:55;12.43;;;11.30;;
40252;SDS011;25972;51.854;4.534;2023-12-29T08:57:21;12.38;;;11.23;;
40252;SDS011;25972;51.854;4.534;2023-12-29T08:59:49;11.38;;;10.55;;
40252;SDS011;25972;51.854;4.534;2023-12-29T09:02:16;12.00;;;11.10;;
40252;SDS011;25972;51.854;4.534;2023-12-29T09:04:42;12.00;;;11.10;;
40252;SDS011;25972;51.854;4.534;2023-12-29T09:07:08;11.90;;;11.10;;
40252;SDS011;25972;51.854;4.534;2023-12-29T09:09:34;13.35;;;12.18;;
40252;SDS011;25972;51.854;4.534;2023-12-29T09:12:00;12.50;;;11.38;;
40252;SDS011;25972;51.854;4.534;2023-12-29T09:14:27;16.20;;;11.35;;
40252;SDS011;25972;51.854;4.534;2023-12-29T09:16:58;12.25;;;11.10;;
40252;SDS011;25972;51.854;4.534;2023-12-29T09:19:24;12.18;;;11.38;;
40252;SDS011;25972;51.854;4.534;2023-12-29T09:21:50;12.35;;;11.35;;
40252;SDS011;25972;51.854;4.534;2023-12-29T09:24:16;12.13;;;11.25;;
40252;SDS011;25972;51.854;4.534;2023-12-29T09:26:42;12.57;;;11.40;;
40252;SDS011;25972;51.854;4.534;2023-12-29T09:29:08;11.75;;;10.85;;
40252;SDS011;25972;51.854;4.534;2023-12-29T09:31:34;12.32;;;11.52;;
40252;SDS011;25972;51.854;4.534;2023-12-29T09:34:02;12.30;;;11.40;;
40252;SDS011;25972;51.854;4.534;2023-12-29T09:36:29;12.27;;;11.38;;
40252;SDS011;25972;51.854;4.534;2023-12-29T09:38:55;12.88;;;11.88;;
40252;SDS011;25972;51.854;4.534;2023-12-29T09:41:23;12.93;;;11.88;;
40252;SDS011;25972;51.854;4.534;2023-12-29T09:43:50;12.18;;;11.18;;
40252;SDS011;25972;51.854;4.534;2023-12-29T09:46:21;12.60;;;11.50;;
40252;SDS011;25972;51.854;4.534;2023-12-29T09:48:48;12.45;;;11.55;;
40252;SDS011;25972;51.854;4.534;2023-12-29T09:51:23;13.43;;;11.07;;
40252;SDS011;25972;51.854;4.534;2023-12-29T09:53:50;12.30;;;11.40;;
40252;SDS011;25972;51.854;4.534;2023-12-29T09:56:17;12.48;;;11.57;;
40252;SDS011;25972;51.854;4.534;2023-12-29T09:58:45;13.05;;;11.90;;
40252;SDS011;25972;51.854;4.534;2023-12-29T10:01:12;12.55;;;11.65;;
40252;SDS011;25972;51.854;4.534;2023-12-29T10:03:38;13.25;;;12.20;;
40252;SDS011;25972;51.854;4.534;2023-12-29T10:06:10;13.32;;;12.15;;
40252;SDS011;25972;51.854;4.534;2023-12-29T10:08:44;12.85;;;11.65;;
40252;SDS011;25972;51.854;4.534;2023-12-29T10:11:12;12.93;;;12.02;;
40252;SDS011;25972;51.854;4.534;2023-12-29T10:13:40;13.60;;;12.45;;
40252;SDS011;25972;51.854;4.534;2023-12-29T10:16:12;13.98;;;12.13;;
40252;SDS011;25972;51.854;4.534;2023-12-29T10:18:44;13.68;;;12.45;;
40252;SDS011;25972;51.854;4.534;2023-12-29T10:21:16;13.25;;;12.32;;
40252;SDS011;25972;51.854;4.534;2023-12-29T10:23:52;13.45;;;12.30;;
40252;SDS011;25972;51.854;4.534;2023-12-29T10:26:23;14.25;;;13.07;;
40252;SDS011;25972;51.854;4.534;2023-12-29T10:28:49;14.00;;;12.90;;
40252;SDS011;25972;51.854;4.534;2023-12-29T10:31:15;15.48;;;13.80;;
40252;SDS011;25972;51.854;4.534;2023-12-29T10:33:41;14.82;;;13.45;;
40252;SDS011;25972;51.854;4.534;2023-12-29T10:36:07;14.85;;;13.80;;
40252;SDS011;25972;51.854;4.534;2023-12-29T10:38:34;15.77;;;14.23;;
40252;SDS011;25972;51.854;4.534;2023-12-29T10:41:11;14.40;;;13.30;;
40252;SDS011;25972;51.854;4.534;2023-12-29T10:43:41;15.25;;;13.60;;
40252;SDS011;25972;51.854;4.534;2023-12-29T10:46:09;15.40;;;13.95;;
40252;SDS011;25972;51.854;4.534;2023-12-29T10:48:36;13.88;;;12.98;;
40252;SDS011;25972;51.854;4.534;2023-12-29T10:51:02;15.23;;;13.93;;
40252;SDS011;25972;51.854;4.534;2023-12-29T10:53:29;15.95;;;14.48;;
40252;SDS011;25972;51.854;4.534;2023-12-29T10:55:57;14.50;;;13.25;;
40252;SDS011;25972;51.854;4.534;2023-12-29T10:58:28;14.32;;;13.25;;
40252;SDS011;25972;51.854;4.534;2023-12-29T11:00:55;19.20;;;13.48;;
40252;SDS011;25972;51.854;4.534;2023-12-29T11:03:21;15.18;;;13.88;;
40252;SDS011;25972;51.854;4.534;2023-12-29T11:05:48;15.32;;;13.82;;
40252;SDS011;25972;51.854;4.534;2023-12-29T11:08:15;15.43;;;14.23;;
40252;SDS011;25972;51.854;4.534;2023-12-29T11:10:44;14.20;;;13.10;;
40252;SDS011;25972;51.854;4.534;2023-12-29T11:13:10;14.25;;;13.15;;
40252;SDS011;25972;51.854;4.534;2023-12-29T11:15:41;14.77;;;13.75;;
40252;SDS011;25972;51.854;4.534;2023-12-29T11:18:09;14.98;;;13.88;;
40252;SDS011;25972;51.854;4.534;2023-12-29T11:20:38;16.52;;;15.05;;
40252;SDS011;25972;51.854;4.534;2023-12-29T11:23:04;17.70;;;14.40;;
40252;SDS011;25972;51.854;4.534;2023-12-29T11:25:33;15.60;;;14.50;;
40252;SDS011;25972;51.854;4.534;2023-12-29T11:27:59;15.77;;;14.30;;
40252;SDS011;25972;51.854;4.534;2023-12-29T11:30:26;23.52;;;15.75;;
40252;SDS011;25972;51.854;4.534;2023-12-29T11:32:55;15.48;;;14.10;;
40252;SDS011;25972;51.854;4.534;2023-12-29T11:35:26;25.05;;;15.27;;
40252;SDS011;25972;51.854;4.534;2023-12-29T11:38:00;15.95;;;14.55;;
40252;SDS011;25972;51.854;4.534;2023-12-29T11:40:40;16.55;;;14.75;;
40252;SDS011;25972;51.854;4.534;2023-12-29T11:43:11;25.13;;;15.82;;
40252;SDS011;25972;51.854;4.534;2023-12-29T11:45:42;18.10;;;16.00;;
40252;SDS011;25972;51.854;4.534;2023-12-29T11:48:10;17.08;;;15.02;;
40252;SDS011;25972;51.854;4.534;2023-12-29T11:50:37;28.48;;;15.20;;
40252;SDS011;25972;51.854;4.534;2023-12-29T11:53:05;22.00;;;15.02;;
40252;SDS011;25972;51.854;4.534;2023-12-29T11:55:34;15.50;;;14.30;;
40252;SDS011;25972;51.854;4.534;2023-12-29T11:58:01;16.48;;;14.90;;
40252;SDS011;25972;51.854;4.534;2023-12-29T12:00:42;20.35;;;15.30;;
40252;SDS011;25972;51.854;4.534;2023-12-29T12:03:17;17.27;;;14.85;;
40252;SDS011;25972;51.854;4.534;2023-12-29T12:05:49;21.55;;;15.15;;
40252;SDS011;25972;51.854;4.534;2023-12-29T12:08:28;16.52;;;15.00;;
40252;SDS011;25972;51.854;4.534;2023-12-29T12:10:55;15.85;;;14.43;;
40252;SDS011;25972;51.854;4.534;2023-12-29T12:16:09;18.45;;;16.13;;
40252;SDS011;25972;51.854;4.534;2023-12-29T12:19:05;17.15;;;15.50;;
40252;SDS011;25972;51.854;4.534;2023-12-29T12:21:32;16.60;;;14.95;;
40252;SDS011;25972;51.854;4.534;2023-12-29T12:23:59;17.52;;;15.48;;
40252;SDS011;25972;51.854;4.534;2023-12-29T12:26:28;16.33;;;15.10;;
40252;SDS011;25972;51.854;4.534;2023-12-29T12:28:56;16.60;;;15.00;;
40252;SDS011;25972;51.854;4.534;2023-12-29T12:31:22;18.00;;;16.20;;
40252;SDS011;25972;51.854;4.534;2023-12-29T12:33:53;17.00;;;15.25;;
40252;SDS011;25972;51.854;4.534;2023-12-29T12:36:22;19.38;;;15.88;;
40252;SDS011;25972;51.854;4.534;2023-12-29T12:38:51;18.90;;;16.20;;
40252;SDS011;25972;51.854;4.534;2023-12-29T12:41:17;17.08;;;15.70;;
40252;SDS011;25972;51.854;4.534;2023-12-29T12:43:45;17.50;;;15.70;;
40252;SDS011;25972;51.854;4.534;2023-12-29T12:46:18;16.88;;;15.20;;
40252;SDS011;25972;51.854;4.534;2023-12-29T12:48:50;17.02;;;15.73;;
40252;SDS011;25972;51.854;4.534;2023-12-29T12:51:18;21.08;;;15.85;;
40252;SDS011;25972;51.854;4.534;2023-12-29T12:53:47;15.57;;;14.57;;
40252;SDS011;25972;51.854;4.534;2023-12-29T12:56:15;20.15;;;16.45;;
40252;SDS011;25972;51.854;4.534;2023-12-29T12:58:42;17.10;;;15.50;;
40252;SDS011;25972;51.854;4.534;2023-12-29T13:01:09;17.35;;;15.80;;
40252;SDS011;25972;51.854;4.534;2023-12-29T13:03:36;17.10;;;15.32;;
40252;SDS011;25972;51.854;4.534;2023-12-29T13:06:03;18.55;;;15.68;;
40252;SDS011;25972;51.854;4.534;2023-12-29T13:08:30;21.08;;;15.73;;
40252;SDS011;25972;51.854;4.534;2023-12-29T13:10:59;15.60;;;14.50;;
40252;SDS011;25972;51.854;4.534;2023-12-29T13:13:34;19.15;;;15.75;;
40252;SDS011;25972;51.854;4.534;2023-12-29T13:16:02;17.33;;;15.55;;
40252;SDS011;25972;51.854;4.534;2023-12-29T13:18:28;23.33;;;16.48;;
40252;SDS011;25972;51.854;4.534;2023-12-29T13:20:56;25.83;;;16.27;;
40252;SDS011;25972;51.854;4.534;2023-12-29T13:23:24;27.27;;;16.40;;
40252;SDS011;25972;51.854;4.534;2023-12-29T13:25:51;18.02;;;15.38;;
40252;SDS011;25972;51.854;4.534;2023-12-29T13:28:23;16.02;;;14.45;;
40252;SDS011;25972;51.854;4.534;2023-12-29T13:30:50;19.02;;;15.98;;
40252;SDS011;25972;51.854;4.534;2023-12-29T13:33:18;17.15;;;15.38;;
40252;SDS011;25972;51.854;4.534;2023-12-29T13:35:52;24.97;;;15.73;;
40252;SDS011;25972;51.854;4.534;2023-12-29T13:38:22;24.40;;;16.33;;
40252;SDS011;25972;51.854;4.534;2023-12-29T13:40:54;25.77;;;15.13;;
40252;SDS011;25972;51.854;4.534;2023-12-29T13:43:26;25.20;;;15.60;;
40252;SDS011;25972;51.854;4.534;2023-12-29T13:45:55;18.70;;;14.45;;
40252;SDS011;25972;51.854;4.534;2023-12-29T13:48:21;22.27;;;15.40;;
40252;SDS011;25972;51.854;4.534;2023-12-29T13:50:47;25.58;;;15.40;;
40252;SDS011;25972;51.854;4.534;2023-12-29T13:53:15;27.67;;;15.75;;
40252;SDS011;25972;51.854;4.534;2023-12-29T13:55:43;28.98;;;16.50;;
40252;SDS011;25972;51.854;4.534;2023-12-29T13:58:10;27.23;;;14.98;;
40252;SDS011;25972;51.854;4.534;2023-12-29T14:00:40;17.70;;;15.98;;
40252;SDS011;25972;51.854;4.534;2023-12-29T14:03:06;24.00;;;15.98;;
40252;SDS011;25972;51.854;4.534;2023-12-29T14:05:43;21.38;;;16.10;;
40252;SDS011;25972;51.854;4.534;2023-12-29T14:08:17;18.00;;;15.18;;
40252;SDS011;25972;51.854;4.534;2023-12-29T14:10:45;14.57;;;13.48;;
40252;SDS011;25972;51.854;4.534;2023-12-29T14:13:11;15.43;;;13.50;;
40252;SDS011;25972;51.854;4.534;2023-12-29T14:15:40;16.77;;;13.75;;
40252;SDS011;25972;51.854;4.534;2023-12-29T14:18:08;22.58;;;13.77;;
40252;SDS011;25972;51.854;4.534;2023-12-29T14:20:47;15.95;;;13.98;;
40252;SDS011;25972;51.854;4.534;2023-12-29T14:23:13;18.65;;;13.73;;
40252;SDS011;25972;51.854;4.534;2023-12-29T14:25:39;16.33;;;12.95;;
40252;SDS011;25972;51.854;4.534;2023-12-29T14:28:15;14.90;;;13.35;;